Beloit, Kansas
Current Conditions -  °F | °C
As of 10:55 PM on Friday 28 Nov 2014 (Local Time) from KCNK Reporting Station
Clear Clear  
Wind Chill: 50°   Ceiling: Unl
Heat Index: 50°   Visibility: 10mi
Dew Point: 35°   Wind: 14mph
Humidity: 57%   Direction: 210°SSW
Pressure: 29.67"   Gusts: NA
Location:  39.46°N, 98.11°W
Report Text: KCNK 290455Z AUTO 21012KT 10SM CLR 10/02 A2967 RMK AO2 SLP047 T01000017
Loading
Personal Weather Stations






























Interactive Weather Map New forecast layout! Learn more

10-Day Weather Forecast

Advertisements
Track Severe Weather on mobile